Sign in

Advertising

Info

Aviation weather - KDAB

METAR KDAB 060153Z 05006KT 10SM FEW016 SCT022 BKN050 OVC200 23/19 A3014 RMK AO2 SLP204 T02280194

TAF KDAB 052320Z 0600/0624 05012KT P6SM FEW035 FEW090 OVC200 FM060600 03006KT P6SM VCSH FEW025 BKN080 FM061200 02012KT P6SM VCSH FEW025 SCT050 BKN250

ADDS Experimental. Do not use for flight-related decisions.

Javascript required. Ce site nécessite javascript